Terminal Aerodrome Forecast
Issued by NWS Melbourne, FL

Home | Current Version | Previous Version | Text Only | Print | Product List | Glossary On
Versions: 1 2 3 4 5 6 7 8 9 10 11 12 13
698
FTUS42 KMLB 191121
TAFMLB
TAF
KMLB 191121Z 1912/2012 VRB04KT P6SM BKN250
     FM191400 34005KT P6SM SCT250
     FM191700 05007KT P6SM FEW045 SCT250
     FM192000 08008KT P6SM FEW045 SCT250
     FM200000 VRB04KT P6SM SCT250=

USA.gov is the U.S. government's official web portal to all federal, state and local government web resources and services.